sensor_id;sensor_type;location;lat;lon;timestamp;temperature;humidity
6355;DHT22;3210;48.708;9.030;2023-05-07T00:02:05;11.90;99.90
6355;DHT22;3210;48.708;9.030;2023-05-07T00:04:33;12.00;99.90
6355;DHT22;3210;48.708;9.030;2023-05-07T00:07:03;12.00;99.90
6355;DHT22;3210;48.708;9.030;2023-05-07T00:09:29;12.00;99.90
6355;DHT22;3210;48.708;9.030;2023-05-07T00:11:56;11.90;99.90
6355;DHT22;3210;48.708;9.030;2023-05-07T00:14:23;11.90;99.90
6355;DHT22;3210;48.708;9.030;2023-05-07T00:16:51;11.90;99.90
6355;DHT22;3210;48.708;9.030;2023-05-07T00:19:18;11.90;99.90
6355;DHT22;3210;48.708;9.030;2023-05-07T00:21:45;11.90;99.90
6355;DHT22;3210;48.708;9.030;2023-05-07T00:24:12;11.90;99.90
6355;DHT22;3210;48.708;9.030;2023-05-07T00:26:39;11.80;99.90
6355;DHT22;3210;48.708;9.030;2023-05-07T00:29:05;11.70;99.90
6355;DHT22;3210;48.708;9.030;2023-05-07T00:31:32;11.70;99.90
6355;DHT22;3210;48.708;9.030;2023-05-07T00:34:00;11.80;99.90
6355;DHT22;3210;48.708;9.030;2023-05-07T00:36:27;11.80;99.90
6355;DHT22;3210;48.708;9.030;2023-05-07T00:38:54;11.80;99.90
6355;DHT22;3210;48.708;9.030;2023-05-07T00:41:21;11.80;99.90
6355;DHT22;3210;48.708;9.030;2023-05-07T00:43:48;11.70;99.90
6355;DHT22;3210;48.708;9.030;2023-05-07T00:46:17;11.70;99.90
6355;DHT22;3210;48.708;9.030;2023-05-07T00:48:45;11.60;99.90
6355;DHT22;3210;48.708;9.030;2023-05-07T00:51:13;11.90;99.90
6355;DHT22;3210;48.708;9.030;2023-05-07T00:53:40;11.80;99.90
6355;DHT22;3210;48.708;9.030;2023-05-07T00:56:07;11.80;99.90
6355;DHT22;3210;48.708;9.030;2023-05-07T00:58:35;11.70;99.90
6355;DHT22;3210;48.708;9.030;2023-05-07T01:01:02;11.70;99.90
6355;DHT22;3210;48.708;9.030;2023-05-07T01:03:29;11.80;99.90
6355;DHT22;3210;48.708;9.030;2023-05-07T01:05:57;11.90;99.90
6355;DHT22;3210;48.708;9.030;2023-05-07T01:08:26;12.10;99.90
6355;DHT22;3210;48.708;9.030;2023-05-07T01:10:55;11.90;99.90
6355;DHT22;3210;48.708;9.030;2023-05-07T01:13:22;11.90;99.90
6355;DHT22;3210;48.708;9.030;2023-05-07T01:15:50;11.90;99.90
6355;DHT22;3210;48.708;9.030;2023-05-07T01:18:17;11.70;99.90
6355;DHT22;3210;48.708;9.030;2023-05-07T01:20:44;11.80;99.90
6355;DHT22;3210;48.708;9.030;2023-05-07T01:23:12;11.70;99.90
6355;DHT22;3210;48.708;9.030;2023-05-07T01:25:39;11.60;99.90
6355;DHT22;3210;48.708;9.030;2023-05-07T01:28:06;11.70;99.90
6355;DHT22;3210;48.708;9.030;2023-05-07T01:30:34;11.70;99.90
6355;DHT22;3210;48.708;9.030;2023-05-07T01:33:04;11.70;99.90
6355;DHT22;3210;48.708;9.030;2023-05-07T01:35:36;11.70;99.90
6355;DHT22;3210;48.708;9.030;2023-05-07T01:38:04;11.80;99.90
6355;DHT22;3210;48.708;9.030;2023-05-07T01:40:33;11.80;99.90
6355;DHT22;3210;48.708;9.030;2023-05-07T01:43:01;11.90;99.90
6355;DHT22;3210;48.708;9.030;2023-05-07T01:45:30;11.90;99.90
6355;DHT22;3210;48.708;9.030;2023-05-07T01:47:58;12.00;99.90
6355;DHT22;3210;48.708;9.030;2023-05-07T01:50:25;12.10;99.90
6355;DHT22;3210;48.708;9.030;2023-05-07T01:52:52;11.90;99.90
6355;DHT22;3210;48.708;9.030;2023-05-07T01:55:19;11.80;99.90
6355;DHT22;3210;48.708;9.030;2023-05-07T01:57:47;11.60;99.90
6355;DHT22;3210;48.708;9.030;2023-05-07T02:00:14;11.50;99.90
6355;DHT22;3210;48.708;9.030;2023-05-07T02:02:41;11.50;99.90
6355;DHT22;3210;48.708;9.030;2023-05-07T02:05:08;11.60;99.90
6355;DHT22;3210;48.708;9.030;2023-05-07T02:07:35;11.60;99.90
6355;DHT22;3210;48.708;9.030;2023-05-07T02:10:02;11.60;99.90
6355;DHT22;3210;48.708;9.030;2023-05-07T02:12:29;11.70;99.90
6355;DHT22;3210;48.708;9.030;2023-05-07T02:14:57;11.60;99.90
6355;DHT22;3210;48.708;9.030;2023-05-07T02:17:24;11.50;99.90
6355;DHT22;3210;48.708;9.030;2023-05-07T02:19:51;11.50;99.90
6355;DHT22;3210;48.708;9.030;2023-05-07T02:22:18;11.40;99.90
6355;DHT22;3210;48.708;9.030;2023-05-07T02:24:44;11.40;99.90
6355;DHT22;3210;48.708;9.030;2023-05-07T02:27:11;11.50;99.90
6355;DHT22;3210;48.708;9.030;2023-05-07T02:29:38;11.40;99.90
6355;DHT22;3210;48.708;9.030;2023-05-07T02:32:06;11.30;99.90
6355;DHT22;3210;48.708;9.030;2023-05-07T02:34:33;11.20;99.90
6355;DHT22;3210;48.708;9.030;2023-05-07T02:37:00;11.10;99.90
6355;DHT22;3210;48.708;9.030;2023-05-07T02:39:27;11.20;99.90
6355;DHT22;3210;48.708;9.030;2023-05-07T02:41:54;11.30;99.90
6355;DHT22;3210;48.708;9.030;2023-05-07T02:44:20;11.20;99.90
6355;DHT22;3210;48.708;9.030;2023-05-07T02:46:47;11.20;99.90
6355;DHT22;3210;48.708;9.030;2023-05-07T02:49:15;11.30;99.90
6355;DHT22;3210;48.708;9.030;2023-05-07T02:51:42;11.20;99.90
6355;DHT22;3210;48.708;9.030;2023-05-07T02:54:09;11.20;99.90
6355;DHT22;3210;48.708;9.030;2023-05-07T02:56:36;11.10;99.90
6355;DHT22;3210;48.708;9.030;2023-05-07T02:59:02;10.90;1.00
6355;DHT22;3210;48.708;9.030;2023-05-07T03:01:29;10.80;1.00
6355;DHT22;3210;48.708;9.030;2023-05-07T03:03:56;10.80;1.00
6355;DHT22;3210;48.708;9.030;2023-05-07T03:06:24;10.90;1.00
6355;DHT22;3210;48.708;9.030;2023-05-07T03:08:51;10.90;1.00
6355;DHT22;3210;48.708;9.030;2023-05-07T03:11:18;10.80;99.90
6355;DHT22;3210;48.708;9.030;2023-05-07T03:13:45;10.70;1.00
6355;DHT22;3210;48.708;9.030;2023-05-07T03:16:12;10.70;1.00
6355;DHT22;3210;48.708;9.030;2023-05-07T03:18:38;10.80;1.00
6355;DHT22;3210;48.708;9.030;2023-05-07T03:21:05;10.70;99.90
6355;DHT22;3210;48.708;9.030;2023-05-07T03:23:33;10.80;99.90
6355;DHT22;3210;48.708;9.030;2023-05-07T03:26:00;10.80;99.90
6355;DHT22;3210;48.708;9.030;2023-05-07T03:28:27;10.80;99.90
6355;DHT22;3210;48.708;9.030;2023-05-07T03:30:54;10.90;99.90
6355;DHT22;3210;48.708;9.030;2023-05-07T03:33:20;10.80;99.90
6355;DHT22;3210;48.708;9.030;2023-05-07T03:35:47;10.80;99.90
6355;DHT22;3210;48.708;9.030;2023-05-07T03:38:14;10.90;99.90
6355;DHT22;3210;48.708;9.030;2023-05-07T03:40:42;10.90;99.90
6355;DHT22;3210;48.708;9.030;2023-05-07T03:43:09;10.90;99.90
6355;DHT22;3210;48.708;9.030;2023-05-07T03:45:35;10.80;99.90
6355;DHT22;3210;48.708;9.030;2023-05-07T03:48:03;10.70;99.90
6355;DHT22;3210;48.708;9.030;2023-05-07T03:50:30;10.80;99.90
6355;DHT22;3210;48.708;9.030;2023-05-07T03:52:56;10.80;99.90
6355;DHT22;3210;48.708;9.030;2023-05-07T03:55:23;10.70;99.90
6355;DHT22;3210;48.708;9.030;2023-05-07T03:57:52;10.50;99.90
6355;DHT22;3210;48.708;9.030;2023-05-07T04:00:19;10.40;1.00
6355;DHT22;3210;48.708;9.030;2023-05-07T04:02:47;10.30;1.00
6355;DHT22;3210;48.708;9.030;2023-05-07T04:05:14;10.10;1.00
6355;DHT22;3210;48.708;9.030;2023-05-07T04:07:41;10.20;1.00
6355;DHT22;3210;48.708;9.030;2023-05-07T04:10:08;10.10;1.00
6355;DHT22;3210;48.708;9.030;2023-05-07T04:12:35;10.10;1.00
6355;DHT22;3210;48.708;9.030;2023-05-07T04:15:04;10.10;1.00
6355;DHT22;3210;48.708;9.030;2023-05-07T04:17:31;10.10;1.00
6355;DHT22;3210;48.708;9.030;2023-05-07T04:19:57;10.10;1.00
6355;DHT22;3210;48.708;9.030;2023-05-07T04:22:24;10.20;1.00
6355;DHT22;3210;48.708;9.030;2023-05-07T04:24:51;10.20;1.00
6355;DHT22;3210;48.708;9.030;2023-05-07T04:27:18;10.20;1.00
6355;DHT22;3210;48.708;9.030;2023-05-07T04:29:45;10.20;1.00
6355;DHT22;3210;48.708;9.030;2023-05-07T04:32:14;10.30;1.00
6355;DHT22;3210;48.708;9.030;2023-05-07T04:34:41;10.30;1.00
6355;DHT22;3210;48.708;9.030;2023-05-07T04:37:08;10.40;1.00
6355;DHT22;3210;48.708;9.030;2023-05-07T04:39:35;10.50;1.00
6355;DHT22;3210;48.708;9.030;2023-05-07T04:42:01;10.50;99.90
6355;DHT22;3210;48.708;9.030;2023-05-07T04:44:28;10.40;99.90
6355;DHT22;3210;48.708;9.030;2023-05-07T04:46:56;10.40;99.90
6355;DHT22;3210;48.708;9.030;2023-05-07T04:49:24;10.40;99.90
6355;DHT22;3210;48.708;9.030;2023-05-07T04:51:51;10.30;99.90
6355;DHT22;3210;48.708;9.030;2023-05-07T04:54:18;10.30;99.90
6355;DHT22;3210;48.708;9.030;2023-05-07T04:56:44;10.40;1.00
6355;DHT22;3210;48.708;9.030;2023-05-07T04:59:11;10.40;99.90
6355;DHT22;3210;48.708;9.030;2023-05-07T05:01:38;10.50;99.90
6355;DHT22;3210;48.708;9.030;2023-05-07T05:04:05;10.50;99.90
6355;DHT22;3210;48.708;9.030;2023-05-07T05:06:33;10.60;99.90
6355;DHT22;3210;48.708;9.030;2023-05-07T05:09:00;10.60;99.90
6355;DHT22;3210;48.708;9.030;2023-05-07T05:11:27;10.50;99.90
6355;DHT22;3210;48.708;9.030;2023-05-07T05:13:54;10.60;1.00
6355;DHT22;3210;48.708;9.030;2023-05-07T05:16:21;10.70;1.00
6355;DHT22;3210;48.708;9.030;2023-05-07T05:18:48;10.80;1.00
6355;DHT22;3210;48.708;9.030;2023-05-07T05:21:14;11.00;1.00
6355;DHT22;3210;48.708;9.030;2023-05-07T05:23:43;11.20;99.90
6355;DHT22;3210;48.708;9.030;2023-05-07T05:26:09;11.20;99.90
6355;DHT22;3210;48.708;9.030;2023-05-07T05:28:36;11.40;99.90
6355;DHT22;3210;48.708;9.030;2023-05-07T05:31:04;11.50;99.90
6355;DHT22;3210;48.708;9.030;2023-05-07T05:33:31;11.80;99.90
6355;DHT22;3210;48.708;9.030;2023-05-07T05:35:57;12.00;99.90
6355;DHT22;3210;48.708;9.030;2023-05-07T05:38:24;12.20;99.90
6355;DHT22;3210;48.708;9.030;2023-05-07T05:40:52;12.30;99.90
6355;DHT22;3210;48.708;9.030;2023-05-07T05:43:19;12.60;99.90
6355;DHT22;3210;48.708;9.030;2023-05-07T05:45:46;12.80;99.90
6355;DHT22;3210;48.708;9.030;2023-05-07T05:48:13;13.00;99.90
6355;DHT22;3210;48.708;9.030;2023-05-07T05:50:39;13.20;99.90
6355;DHT22;3210;48.708;9.030;2023-05-07T05:53:06;13.40;97.50
6355;DHT22;3210;48.708;9.030;2023-05-07T05:55:33;13.60;92.90
6355;DHT22;3210;48.708;9.030;2023-05-07T05:58:01;13.80;81.70
6355;DHT22;3210;48.708;9.030;2023-05-07T06:00:28;14.00;63.20
6355;DHT22;3210;48.708;9.030;2023-05-07T06:02:56;14.10;52.90
6355;DHT22;3210;48.708;9.030;2023-05-07T06:05:22;14.20;37.90
6355;DHT22;3210;48.708;9.030;2023-05-07T06:07:49;14.20;22.90
6355;DHT22;3210;48.708;9.030;2023-05-07T06:10:16;14.10;35.60
6355;DHT22;3210;48.708;9.030;2023-05-07T06:12:44;14.10;51.90
6355;DHT22;3210;48.708;9.030;2023-05-07T06:15:12;14.10;38.60
6355;DHT22;3210;48.708;9.030;2023-05-07T06:17:39;14.20;34.10
6355;DHT22;3210;48.708;9.030;2023-05-07T06:20:07;14.40;15.70
6355;DHT22;3210;48.708;9.030;2023-05-07T06:22:34;14.50;18.40
6355;DHT22;3210;48.708;9.030;2023-05-07T06:25:01;14.60;15.70
6355;DHT22;3210;48.708;9.030;2023-05-07T06:27:27;14.80;12.60
6355;DHT22;3210;48.708;9.030;2023-05-07T06:29:54;14.90;12.70
6355;DHT22;3210;48.708;9.030;2023-05-07T06:32:22;15.00;16.80
6355;DHT22;3210;48.708;9.030;2023-05-07T06:34:49;15.10;17.30
6355;DHT22;3210;48.708;9.030;2023-05-07T06:37:16;15.10;8.20
6355;DHT22;3210;48.708;9.030;2023-05-07T06:39:43;15.20;7.40
6355;DHT22;3210;48.708;9.030;2023-05-07T06:42:09;15.30;7.60
6355;DHT22;3210;48.708;9.030;2023-05-07T06:44:36;15.40;7.70
6355;DHT22;3210;48.708;9.030;2023-05-07T06:47:03;15.60;3.60
6355;DHT22;3210;48.708;9.030;2023-05-07T06:49:32;15.80;1.00
6355;DHT22;3210;48.708;9.030;2023-05-07T06:51:58;15.90;1.00
6355;DHT22;3210;48.708;9.030;2023-05-07T06:54:25;16.10;1.00
6355;DHT22;3210;48.708;9.030;2023-05-07T06:56:52;16.10;1.00
6355;DHT22;3210;48.708;9.030;2023-05-07T06:59:19;16.30;1.00
6355;DHT22;3210;48.708;9.030;2023-05-07T07:01:46;16.30;1.00
6355;DHT22;3210;48.708;9.030;2023-05-07T07:04:12;16.60;1.00
6355;DHT22;3210;48.708;9.030;2023-05-07T07:06:41;16.60;1.00
6355;DHT22;3210;48.708;9.030;2023-05-07T07:09:07;16.70;1.00
6355;DHT22;3210;48.708;9.030;2023-05-07T07:11:34;16.80;1.00
6355;DHT22;3210;48.708;9.030;2023-05-07T07:14:01;17.00;1.00
6355;DHT22;3210;48.708;9.030;2023-05-07T07:16:28;17.10;1.00
6355;DHT22;3210;48.708;9.030;2023-05-07T07:18:55;17.30;1.00
6355;DHT22;3210;48.708;9.030;2023-05-07T07:21:22;17.50;1.00
6355;DHT22;3210;48.708;9.030;2023-05-07T07:23:50;17.70;1.00
6355;DHT22;3210;48.708;9.030;2023-05-07T07:26:17;18.10;1.00
6355;DHT22;3210;48.708;9.030;2023-05-07T07:28:45;18.30;1.00
6355;DHT22;3210;48.708;9.030;2023-05-07T07:31:12;18.40;1.00
6355;DHT22;3210;48.708;9.030;2023-05-07T07:33:39;18.50;1.00
6355;DHT22;3210;48.708;9.030;2023-05-07T07:36:06;18.60;1.00
6355;DHT22;3210;48.708;9.030;2023-05-07T07:38:33;18.80;1.00
6355;DHT22;3210;48.708;9.030;2023-05-07T07:41:01;19.00;1.00
6355;DHT22;3210;48.708;9.030;2023-05-07T07:43:28;19.20;1.00
6355;DHT22;3210;48.708;9.030;2023-05-07T07:45:55;19.30;1.00
6355;DHT22;3210;48.708;9.030;2023-05-07T07:48:22;19.50;1.00
6355;DHT22;3210;48.708;9.030;2023-05-07T07:50:49;19.40;1.00
6355;DHT22;3210;48.708;9.030;2023-05-07T07:53:17;19.40;1.00
6355;DHT22;3210;48.708;9.030;2023-05-07T07:55:44;19.30;1.00
6355;DHT22;3210;48.708;9.030;2023-05-07T07:58:12;19.40;1.00
6355;DHT22;3210;48.708;9.030;2023-05-07T08:00:39;19.40;1.00
6355;DHT22;3210;48.708;9.030;2023-05-07T08:03:06;19.70;1.00
6355;DHT22;3210;48.708;9.030;2023-05-07T08:05:35;19.60;1.00
6355;DHT22;3210;48.708;9.030;2023-05-07T08:08:02;19.50;1.00
6355;DHT22;3210;48.708;9.030;2023-05-07T08:10:28;19.80;1.00
6355;DHT22;3210;48.708;9.030;2023-05-07T08:12:59;20.10;1.00
6355;DHT22;3210;48.708;9.030;2023-05-07T08:15:27;20.20;1.00
6355;DHT22;3210;48.708;9.030;2023-05-07T08:17:54;20.20;1.00
6355;DHT22;3210;48.708;9.030;2023-05-07T08:20:22;20.50;1.00
6355;DHT22;3210;48.708;9.030;2023-05-07T08:22:49;20.70;1.00
6355;DHT22;3210;48.708;9.030;2023-05-07T08:25:16;21.00;1.00
6355;DHT22;3210;48.708;9.030;2023-05-07T08:27:43;20.90;1.00
6355;DHT22;3210;48.708;9.030;2023-05-07T08:30:11;21.00;1.00
6355;DHT22;3210;48.708;9.030;2023-05-07T08:32:39;21.00;1.00
6355;DHT22;3210;48.708;9.030;2023-05-07T08:35:07;21.10;1.00
6355;DHT22;3210;48.708;9.030;2023-05-07T08:37:34;21.20;1.00
6355;DHT22;3210;48.708;9.030;2023-05-07T08:40:01;21.30;1.00
6355;DHT22;3210;48.708;9.030;2023-05-07T08:42:28;21.30;1.00
6355;DHT22;3210;48.708;9.030;2023-05-07T08:44:57;21.50;1.00
6355;DHT22;3210;48.708;9.030;2023-05-07T08:47:29;21.50;1.00
6355;DHT22;3210;48.708;9.030;2023-05-07T08:49:58;21.70;1.00
6355;DHT22;3210;48.708;9.030;2023-05-07T08:52:25;21.80;1.00
6355;DHT22;3210;48.708;9.030;2023-05-07T08:54:52;22.00;1.00
6355;DHT22;3210;48.708;9.030;2023-05-07T08:57:19;21.90;1.00
6355;DHT22;3210;48.708;9.030;2023-05-07T08:59:47;21.90;1.00
6355;DHT22;3210;48.708;9.030;2023-05-07T09:02:13;21.90;1.00
6355;DHT22;3210;48.708;9.030;2023-05-07T09:04:41;21.50;1.00
6355;DHT22;3210;48.708;9.030;2023-05-07T09:07:10;21.80;1.00
6355;DHT22;3210;48.708;9.030;2023-05-07T09:09:37;21.80;1.00
6355;DHT22;3210;48.708;9.030;2023-05-07T09:12:04;21.80;1.00
6355;DHT22;3210;48.708;9.030;2023-05-07T09:14:31;21.60;1.00
6355;DHT22;3210;48.708;9.030;2023-05-07T09:16:58;21.70;1.00
6355;DHT22;3210;48.708;9.030;2023-05-07T09:19:25;22.10;1.00
6355;DHT22;3210;48.708;9.030;2023-05-07T09:21:58;22.30;1.00
6355;DHT22;3210;48.708;9.030;2023-05-07T09:24:27;22.30;1.00
6355;DHT22;3210;48.708;9.030;2023-05-07T09:26:57;22.50;1.00
6355;DHT22;3210;48.708;9.030;2023-05-07T09:29:25;22.70;1.00
6355;DHT22;3210;48.708;9.030;2023-05-07T09:31:51;22.80;1.00
6355;DHT22;3210;48.708;9.030;2023-05-07T09:34:18;22.80;1.00
6355;DHT22;3210;48.708;9.030;2023-05-07T09:36:45;22.90;1.00
6355;DHT22;3210;48.708;9.030;2023-05-07T09:39:12;23.10;1.00
6355;DHT22;3210;48.708;9.030;2023-05-07T09:41:44;22.90;1.00
6355;DHT22;3210;48.708;9.030;2023-05-07T09:44:11;22.70;1.00
6355;DHT22;3210;48.708;9.030;2023-05-07T09:46:39;22.70;1.00
6355;DHT22;3210;48.708;9.030;2023-05-07T09:49:12;22.70;1.00
6355;DHT22;3210;48.708;9.030;2023-05-07T09:51:45;22.70;1.00
6355;DHT22;3210;48.708;9.030;2023-05-07T09:54:14;22.90;1.00
6355;DHT22;3210;48.708;9.030;2023-05-07T09:56:44;23.00;1.00
6355;DHT22;3210;48.708;9.030;2023-05-07T09:59:13;22.90;1.00
6355;DHT22;3210;48.708;9.030;2023-05-07T10:01:40;22.70;1.00
6355;DHT22;3210;48.708;9.030;2023-05-07T10:04:08;23.00;1.00
6355;DHT22;3210;48.708;9.030;2023-05-07T10:06:35;23.10;1.00
6355;DHT22;3210;48.708;9.030;2023-05-07T10:09:03;23.60;1.00
6355;DHT22;3210;48.708;9.030;2023-05-07T10:11:32;23.90;1.00
6355;DHT22;3210;48.708;9.030;2023-05-07T10:14:01;23.90;1.00
6355;DHT22;3210;48.708;9.030;2023-05-07T10:16:29;23.40;1.00
6355;DHT22;3210;48.708;9.030;2023-05-07T10:18:58;23.70;1.00
6355;DHT22;3210;48.708;9.030;2023-05-07T10:21:27;23.80;1.00
6355;DHT22;3210;48.708;9.030;2023-05-07T10:23:59;23.80;1.00
6355;DHT22;3210;48.708;9.030;2023-05-07T10:26:27;23.80;1.00
6355;DHT22;3210;48.708;9.030;2023-05-07T10:29:01;23.60;1.00
6355;DHT22;3210;48.708;9.030;2023-05-07T10:31:52;23.30;1.00
6355;DHT22;3210;48.708;9.030;2023-05-07T10:34:24;23.20;1.00
6355;DHT22;3210;48.708;9.030;2023-05-07T10:36:54;23.20;1.00
6355;DHT22;3210;48.708;9.030;2023-05-07T10:39:22;23.20;1.00
6355;DHT22;3210;48.708;9.030;2023-05-07T10:41:49;23.50;1.00
6355;DHT22;3210;48.708;9.030;2023-05-07T10:44:26;23.70;1.00
6355;DHT22;3210;48.708;9.030;2023-05-07T10:47:05;24.10;1.00
6355;DHT22;3210;48.708;9.030;2023-05-07T10:49:34;24.20;1.00
6355;DHT22;3210;48.708;9.030;2023-05-07T10:52:15;24.50;1.00
6355;DHT22;3210;48.708;9.030;2023-05-07T10:54:42;24.60;1.00
6355;DHT22;3210;48.708;9.030;2023-05-07T10:57:34;24.50;1.00
6355;DHT22;3210;48.708;9.030;2023-05-07T11:00:04;24.30;1.00
6355;DHT22;3210;48.708;9.030;2023-05-07T11:03:07;23.90;1.00
6355;DHT22;3210;48.708;9.030;2023-05-07T11:05:35;23.70;1.00
6355;DHT22;3210;48.708;9.030;2023-05-07T11:08:03;23.90;1.00
6355;DHT22;3210;48.708;9.030;2023-05-07T11:10:50;23.90;1.00
6355;DHT22;3210;48.708;9.030;2023-05-07T11:13:17;23.80;1.00
6355;DHT22;3210;48.708;9.030;2023-05-07T11:15:45;23.80;1.00
6355;DHT22;3210;48.708;9.030;2023-05-07T11:18:15;23.80;1.00
6355;DHT22;3210;48.708;9.030;2023-05-07T11:20:47;23.70;1.00
6355;DHT22;3210;48.708;9.030;2023-05-07T11:26:43;23.20;1.00
6355;DHT22;3210;48.708;9.030;2023-05-07T11:29:14;22.50;1.00
6355;DHT22;3210;48.708;9.030;2023-05-07T11:31:41;22.20;1.00
6355;DHT22;3210;48.708;9.030;2023-05-07T11:34:11;22.00;1.00
6355;DHT22;3210;48.708;9.030;2023-05-07T11:36:42;21.90;1.00
6355;DHT22;3210;48.708;9.030;2023-05-07T11:39:29;21.60;1.00
6355;DHT22;3210;48.708;9.030;2023-05-07T11:41:57;21.60;1.00
6355;DHT22;3210;48.708;9.030;2023-05-07T11:44:24;21.50;1.00
6355;DHT22;3210;48.708;9.030;2023-05-07T11:46:51;21.50;1.00
6355;DHT22;3210;48.708;9.030;2023-05-07T11:49:19;21.60;1.00
6355;DHT22;3210;48.708;9.030;2023-05-07T11:51:46;21.40;1.00
6355;DHT22;3210;48.708;9.030;2023-05-07T11:54:16;21.10;1.00
6355;DHT22;3210;48.708;9.030;2023-05-07T11:56:44;20.40;1.00
6355;DHT22;3210;48.708;9.030;2023-05-07T11:59:11;19.80;1.00
6355;DHT22;3210;48.708;9.030;2023-05-07T12:01:38;19.50;1.00
6355;DHT22;3210;48.708;9.030;2023-05-07T12:04:05;18.90;1.00
6355;DHT22;3210;48.708;9.030;2023-05-07T12:06:36;18.10;1.00
6355;DHT22;3210;48.708;9.030;2023-05-07T12:09:04;17.30;1.00
6355;DHT22;3210;48.708;9.030;2023-05-07T12:11:32;17.00;1.00
6355;DHT22;3210;48.708;9.030;2023-05-07T12:14:00;16.60;1.00
6355;DHT22;3210;48.708;9.030;2023-05-07T12:16:27;16.10;1.00
6355;DHT22;3210;48.708;9.030;2023-05-07T12:18:54;16.20;1.00
6355;DHT22;3210;48.708;9.030;2023-05-07T12:21:21;15.50;1.00
6355;DHT22;3210;48.708;9.030;2023-05-07T12:23:51;15.10;1.00
6355;DHT22;3210;48.708;9.030;2023-05-07T12:26:19;15.20;1.00
6355;DHT22;3210;48.708;9.030;2023-05-07T12:28:46;14.70;30.20
6355;DHT22;3210;48.708;9.030;2023-05-07T12:31:14;14.50;99.90
6355;DHT22;3210;48.708;9.030;2023-05-07T12:33:41;14.30;99.90
6355;DHT22;3210;48.708;9.030;2023-05-07T12:36:08;14.40;1.00
6355;DHT22;3210;48.708;9.030;2023-05-07T12:38:37;14.00;99.90
6355;DHT22;3210;48.708;9.030;2023-05-07T12:41:06;14.10;1.00
6355;DHT22;3210;48.708;9.030;2023-05-07T12:43:35;14.30;1.00
6355;DHT22;3210;48.708;9.030;2023-05-07T12:46:05;14.60;1.00
6355;DHT22;3210;48.708;9.030;2023-05-07T12:48:32;14.80;99.90
6355;DHT22;3210;48.708;9.030;2023-05-07T12:51:00;15.20;67.70
6355;DHT22;3210;48.708;9.030;2023-05-07T12:53:28;15.50;52.80
6355;DHT22;3210;48.708;9.030;2023-05-07T12:55:56;15.70;44.70
6355;DHT22;3210;48.708;9.030;2023-05-07T12:58:26;15.80;22.50
6355;DHT22;3210;48.708;9.030;2023-05-07T13:00:54;15.90;25.40
6355;DHT22;3210;48.708;9.030;2023-05-07T13:03:25;15.90;77.70
6355;DHT22;3210;48.708;9.030;2023-05-07T13:05:55;15.80;99.90
6355;DHT22;3210;48.708;9.030;2023-05-07T13:08:29;15.50;99.90
6355;DHT22;3210;48.708;9.030;2023-05-07T13:10:58;15.50;99.90
6355;DHT22;3210;48.708;9.030;2023-05-07T13:13:26;15.40;99.90
6355;DHT22;3210;48.708;9.030;2023-05-07T13:15:54;15.10;99.90
6355;DHT22;3210;48.708;9.030;2023-05-07T13:18:21;15.10;99.90
6355;DHT22;3210;48.708;9.030;2023-05-07T13:20:47;15.10;1.00
6355;DHT22;3210;48.708;9.030;2023-05-07T13:23:14;15.30;1.00
6355;DHT22;3210;48.708;9.030;2023-05-07T13:25:41;15.40;1.00
6355;DHT22;3210;48.708;9.030;2023-05-07T13:28:08;15.40;1.00
6355;DHT22;3210;48.708;9.030;2023-05-07T13:30:36;15.50;1.00
6355;DHT22;3210;48.708;9.030;2023-05-07T13:33:03;15.40;1.00
6355;DHT22;3210;48.708;9.030;2023-05-07T13:35:29;15.40;1.00
6355;DHT22;3210;48.708;9.030;2023-05-07T13:37:56;15.30;1.00
6355;DHT22;3210;48.708;9.030;2023-05-07T13:40:24;15.30;1.00
6355;DHT22;3210;48.708;9.030;2023-05-07T13:42:51;15.30;1.00
6355;DHT22;3210;48.708;9.030;2023-05-07T13:45:18;15.40;1.00
6355;DHT22;3210;48.708;9.030;2023-05-07T13:47:46;15.50;1.00
6355;DHT22;3210;48.708;9.030;2023-05-07T13:50:14;15.60;99.90
6355;DHT22;3210;48.708;9.030;2023-05-07T13:52:42;15.40;99.90
6355;DHT22;3210;48.708;9.030;2023-05-07T13:55:11;15.30;99.90
6355;DHT22;3210;48.708;9.030;2023-05-07T13:57:38;15.30;99.90
6355;DHT22;3210;48.708;9.030;2023-05-07T14:00:06;15.40;99.90
6355;DHT22;3210;48.708;9.030;2023-05-07T14:02:33;15.40;99.90
6355;DHT22;3210;48.708;9.030;2023-05-07T14:05:01;15.50;99.90
6355;DHT22;3210;48.708;9.030;2023-05-07T14:07:28;15.50;99.90
6355;DHT22;3210;48.708;9.030;2023-05-07T14:09:54;15.40;99.90
6355;DHT22;3210;48.708;9.030;2023-05-07T14:12:22;15.60;1.00
6355;DHT22;3210;48.708;9.030;2023-05-07T14:14:48;15.70;99.90
6355;DHT22;3210;48.708;9.030;2023-05-07T14:17:16;15.80;99.90
6355;DHT22;3210;48.708;9.030;2023-05-07T14:19:43;15.70;99.90
6355;DHT22;3210;48.708;9.030;2023-05-07T14:22:13;15.70;1.00
6355;DHT22;3210;48.708;9.030;2023-05-07T14:24:40;15.60;99.90
6355;DHT22;3210;48.708;9.030;2023-05-07T14:27:07;15.60;99.90
6355;DHT22;3210;48.708;9.030;2023-05-07T14:29:34;15.60;99.90
6355;DHT22;3210;48.708;9.030;2023-05-07T14:32:01;15.50;99.90
6355;DHT22;3210;48.708;9.030;2023-05-07T14:34:28;15.40;99.90
6355;DHT22;3210;48.708;9.030;2023-05-07T14:36:55;15.60;99.90
6355;DHT22;3210;48.708;9.030;2023-05-07T14:39:23;15.60;99.90
6355;DHT22;3210;48.708;9.030;2023-05-07T14:41:51;15.50;99.90
6355;DHT22;3210;48.708;9.030;2023-05-07T14:44:20;15.30;1.00
6355;DHT22;3210;48.708;9.030;2023-05-07T14:46:46;15.50;1.00
6355;DHT22;3210;48.708;9.030;2023-05-07T14:49:14;15.30;99.90
6355;DHT22;3210;48.708;9.030;2023-05-07T14:51:42;14.90;1.00
6355;DHT22;3210;48.708;9.030;2023-05-07T14:54:10;14.90;1.00
6355;DHT22;3210;48.708;9.030;2023-05-07T14:56:38;15.10;1.00
6355;DHT22;3210;48.708;9.030;2023-05-07T14:59:05;15.20;1.00
6355;DHT22;3210;48.708;9.030;2023-05-07T15:01:32;15.20;99.90
6355;DHT22;3210;48.708;9.030;2023-05-07T15:03:59;15.20;99.90
6355;DHT22;3210;48.708;9.030;2023-05-07T15:06:26;15.10;1.00
6355;DHT22;3210;48.708;9.030;2023-05-07T15:08:53;15.10;1.00
6355;DHT22;3210;48.708;9.030;2023-05-07T15:11:20;15.10;1.00
6355;DHT22;3210;48.708;9.030;2023-05-07T15:13:49;15.30;1.00
6355;DHT22;3210;48.708;9.030;2023-05-07T15:16:15;15.20;29.50
6355;DHT22;3210;48.708;9.030;2023-05-07T15:18:42;15.00;99.90
6355;DHT22;3210;48.708;9.030;2023-05-07T15:21:09;15.00;99.90
6355;DHT22;3210;48.708;9.030;2023-05-07T15:23:36;15.10;99.90
6355;DHT22;3210;48.708;9.030;2023-05-07T15:26:04;15.20;13.30
6355;DHT22;3210;48.708;9.030;2023-05-07T15:28:30;15.30;1.00
6355;DHT22;3210;48.708;9.030;2023-05-07T15:30:59;15.50;24.30
6355;DHT22;3210;48.708;9.030;2023-05-07T15:33:26;15.70;94.60
6355;DHT22;3210;48.708;9.030;2023-05-07T15:35:53;15.80;79.40
6355;DHT22;3210;48.708;9.030;2023-05-07T15:38:24;15.90;1.00
6355;DHT22;3210;48.708;9.030;2023-05-07T15:40:51;16.00;1.00
6355;DHT22;3210;48.708;9.030;2023-05-07T15:43:17;16.00;1.00
6355;DHT22;3210;48.708;9.030;2023-05-07T15:45:44;15.80;1.00
6355;DHT22;3210;48.708;9.030;2023-05-07T15:48:12;15.80;1.00
6355;DHT22;3210;48.708;9.030;2023-05-07T15:50:39;16.00;1.00
6355;DHT22;3210;48.708;9.030;2023-05-07T15:53:07;16.00;1.00
6355;DHT22;3210;48.708;9.030;2023-05-07T15:55:36;16.20;1.00
6355;DHT22;3210;48.708;9.030;2023-05-07T15:58:03;16.40;99.90
6355;DHT22;3210;48.708;9.030;2023-05-07T16:00:31;16.70;1.00
6355;DHT22;3210;48.708;9.030;2023-05-07T16:03:00;16.80;99.90
6355;DHT22;3210;48.708;9.030;2023-05-07T16:05:28;16.90;99.90
6355;DHT22;3210;48.708;9.030;2023-05-07T16:07:55;17.00;99.90
6355;DHT22;3210;48.708;9.030;2023-05-07T16:10:23;17.10;99.90
6355;DHT22;3210;48.708;9.030;2023-05-07T16:12:50;17.30;99.90
6355;DHT22;3210;48.708;9.030;2023-05-07T16:15:16;17.30;99.90
6355;DHT22;3210;48.708;9.030;2023-05-07T16:17:45;17.10;99.90